createdAt,value
2019-06-20T00:04:40.956Z,94.20
2019-06-20T00:09:45.412Z,94.30
2019-06-20T00:14:49.728Z,94.60
2019-06-20T00:19:55.067Z,94.70
2019-06-20T00:25:02.798Z,94.80
2019-06-20T00:30:06.102Z,95.00
2019-06-20T00:35:10.997Z,94.80
2019-06-20T00:40:15.499Z,94.70
2019-06-20T00:45:18.791Z,94.70
2019-06-20T00:50:23.316Z,94.50
2019-06-20T00:55:26.779Z,94.30
2019-06-20T01:00:32.504Z,94.40
2019-06-20T01:05:37.222Z,94.70
2019-06-20T01:10:41.637Z,94.90
2019-06-20T01:15:46.033Z,94.90
2019-06-20T01:20:50.204Z,95.10
2019-06-20T01:25:54.613Z,95.00
2019-06-20T01:31:01.170Z,96.50
2019-06-20T01:36:05.903Z,95.80
2019-06-20T01:41:10.121Z,95.70
2019-06-20T01:46:14.717Z,95.40
2019-06-20T01:51:18.417Z,95.40
2019-06-20T01:56:24.231Z,96.10
2019-06-20T02:01:28.459Z,95.50
2019-06-20T02:06:36.329Z,96.00
2019-06-20T02:11:40.469Z,95.90
2019-06-20T02:16:47.520Z,96.00
2019-06-20T02:21:51.713Z,96.10
2019-06-20T02:26:56.359Z,96.30
2019-06-20T02:32:03.816Z,95.60
2019-06-20T02:37:10.372Z,95.40
2019-06-20T02:42:16.797Z,95.70
2019-06-20T02:47:21.201Z,95.60
2019-06-20T02:52:28.953Z,95.80
2019-06-20T02:57:33.146Z,95.70
2019-06-20T03:02:37.537Z,95.70
2019-06-20T03:07:43.004Z,96.20
2019-06-20T03:12:47.452Z,96.40
2019-06-20T03:18:14.521Z,96.20
2019-06-20T03:23:19.250Z,96.10
2019-06-20T03:28:25.984Z,96.50
2019-06-20T03:33:30.460Z,96.10
2019-06-20T03:38:34.788Z,96.20
2019-06-20T03:43:38.930Z,96.10
2019-06-20T03:48:46.194Z,95.80
2019-06-20T03:53:50.609Z,96.00
2019-06-20T03:58:54.794Z,95.50
2019-06-20T04:03:58.967Z,95.40
2019-06-20T04:09:03.534Z,95.10
2019-06-20T04:14:06.671Z,95.30
2019-06-20T04:19:10.798Z,95.30
2019-06-20T04:24:14.922Z,95.50
2019-06-20T04:29:19.225Z,95.30
2019-06-20T04:34:23.334Z,95.40
2019-06-20T04:39:27.618Z,95.30
2019-06-20T04:44:32.042Z,95.40
2019-06-20T04:49:36.720Z,95.30
2019-06-20T04:54:41.182Z,95.20
2019-06-20T04:59:44.565Z,95.60
2019-06-20T05:04:48.613Z,95.40
2019-06-20T05:09:54.003Z,95.60
2019-06-20T05:14:58.098Z,95.60
2019-06-20T05:20:02.183Z,95.70
2019-06-20T05:25:06.927Z,95.40
2019-06-20T05:30:11.410Z,95.50
2019-06-20T05:35:14.752Z,96.10
2019-06-20T05:40:19.254Z,95.40
2019-06-20T05:45:22.423Z,95.80
2019-06-20T05:50:26.660Z,95.50
2019-06-20T05:55:31.079Z,95.70
2019-06-20T06:00:36.097Z,95.20
2019-06-20T06:05:40.335Z,95.10
2019-06-20T06:10:44.546Z,95.20
2019-06-20T06:15:48.652Z,94.70
2019-06-20T06:20:53.080Z,94.50
2019-06-20T06:25:58.409Z,94.80
2019-06-20T06:31:02.543Z,94.20
2019-06-20T06:36:06.688Z,92.90
2019-06-20T06:41:11.031Z,91.60
2019-06-20T06:46:15.250Z,88.80
2019-06-20T06:51:19.436Z,83.60
2019-06-20T06:56:23.591Z,79.70
2019-06-20T07:01:27.676Z,75.90
2019-06-20T07:06:31.839Z,74.00
2019-06-20T07:11:36.079Z,74.30
2019-06-20T07:16:40.165Z,72.20
2019-06-20T07:21:44.230Z,69.70
2019-06-20T07:26:48.324Z,72.80
2019-06-20T07:31:52.741Z,71.60
2019-06-20T07:36:57.351Z,71.20
2019-06-20T07:42:01.612Z,63.70
2019-06-20T07:47:17.205Z,65.80
2019-06-20T07:52:14.859Z,68.20
2019-06-20T07:57:19.010Z,70.70
2019-06-20T08:02:23.431Z,71.70
2019-06-20T08:07:28.038Z,71.90
2019-06-20T08:12:33.814Z,73.10
2019-06-20T08:17:37.959Z,73.60
2019-06-20T08:22:47.244Z,74.60
2019-06-20T08:27:51.818Z,74.00
2019-06-20T08:32:59.144Z,74.60
2019-06-20T08:38:05.790Z,75.30
2019-06-20T08:43:10.926Z,78.30
2019-06-20T08:48:17.836Z,76.20
2019-06-20T08:53:26.156Z,74.40
2019-06-20T08:58:36.096Z,73.10
2019-06-20T09:03:40.223Z,70.20
2019-06-20T09:08:44.617Z,64.10
2019-06-20T09:13:49.038Z,59.70
2019-06-20T09:18:54.873Z,57.10
2019-06-20T09:23:59.942Z,54.80
2019-06-20T09:29:04.471Z,52.90
2019-06-20T09:34:08.957Z,51.90
2019-06-20T09:39:13.167Z,49.10
2019-06-20T09:44:18.231Z,49.90
2019-06-20T09:49:25.026Z,49.20
2019-06-20T09:54:30.933Z,49.20
2019-06-20T09:59:35.857Z,52.10
2019-06-20T10:04:43.245Z,53.20
2019-06-20T10:09:48.233Z,48.90
2019-06-20T10:14:54.247Z,48.80
2019-06-20T10:19:59.059Z,48.80
2019-06-20T10:25:05.870Z,48.90
2019-06-20T10:30:14.268Z,46.40
2019-06-20T10:35:16.129Z,48.30
2019-06-20T10:40:21.655Z,49.10
2019-06-20T10:45:27.127Z,50.80
2019-06-20T10:50:31.301Z,53.60
2019-06-20T10:55:34.484Z,55.20
2019-06-20T11:00:40.042Z,56.60
2019-06-20T11:05:45.542Z,56.90
2019-06-20T11:10:49.789Z,55.90
2019-06-20T11:15:54.222Z,55.40
2019-06-20T11:20:58.644Z,56.40
2019-06-20T11:26:02.969Z,55.80
2019-06-20T11:31:07.075Z,54.90
2019-06-20T11:36:11.499Z,53.90
2019-06-20T11:41:16.131Z,53.00
2019-06-20T11:46:20.271Z,55.00
2019-06-20T11:51:23.371Z,56.40
2019-06-20T11:56:27.562Z,55.10
2019-06-20T12:01:33.183Z,53.70
2019-06-20T12:06:36.624Z,54.50
2019-06-20T12:11:40.710Z,53.70
2019-06-20T12:16:44.938Z,53.80
2019-06-20T12:21:50.358Z,54.50
2019-06-20T12:26:54.459Z,54.40
2019-06-20T12:31:59.178Z,55.00
2019-06-20T12:37:03.447Z,54.30
2019-06-20T12:42:07.843Z,54.60
2019-06-20T12:47:12.405Z,54.20
2019-06-20T12:52:16.562Z,54.80
2019-06-20T12:57:20.270Z,55.60
2019-06-20T13:02:24.444Z,54.80
2019-06-20T13:07:29.620Z,54.90
2019-06-20T13:12:35.984Z,54.80
2019-06-20T13:17:41.994Z,54.90
2019-06-20T13:22:46.849Z,54.20
2019-06-20T13:27:51.086Z,53.60
2019-06-20T13:32:56.826Z,52.60
2019-06-20T13:38:01.847Z,51.70
2019-06-20T13:43:06.859Z,52.10
2019-06-20T13:48:11.372Z,52.80
2019-06-20T13:53:16.438Z,53.50
2019-06-20T13:58:20.653Z,52.40
2019-06-20T14:03:24.839Z,52.30
2019-06-20T14:08:29.306Z,52.60
2019-06-20T14:13:33.970Z,53.50
2019-06-20T14:18:38.326Z,55.10
2019-06-20T14:23:46.187Z,55.90
2019-06-20T14:28:51.054Z,54.40
2019-06-20T14:33:55.564Z,54.70
2019-06-20T14:38:59.895Z,54.40
2019-06-20T14:44:03.870Z,54.10
2019-06-20T14:49:06.999Z,54.50
2019-06-20T14:54:11.072Z,52.20
2019-06-20T14:59:14.500Z,53.70
2019-06-20T15:04:18.722Z,54.10
2019-06-20T15:09:21.849Z,52.60
2019-06-20T15:14:26.212Z,52.20
2019-06-20T15:19:31.201Z,52.30
2019-06-20T15:24:35.273Z,53.20
2019-06-20T15:29:38.493Z,54.10
2019-06-20T15:34:43.784Z,54.70
2019-06-20T15:39:48.521Z,55.30
2019-06-20T15:44:53.840Z,55.80
2019-06-20T15:49:56.836Z,56.50
2019-06-20T15:55:01.356Z,58.00
2019-06-20T16:00:05.916Z,58.20
2019-06-20T16:05:10.793Z,58.10
2019-06-20T16:10:15.318Z,58.70
2019-06-20T16:15:24.312Z,59.60
2019-06-20T16:20:28.449Z,60.70
2019-06-20T16:25:32.529Z,61.30
2019-06-20T16:30:36.668Z,61.10
2019-06-20T16:35:40.227Z,60.90
2019-06-20T16:40:48.255Z,62.00
2019-06-20T16:45:52.303Z,63.90
2019-06-20T16:50:56.687Z,62.90
2019-06-20T16:55:59.803Z,63.30
2019-06-20T17:01:04.021Z,65.50
2019-06-20T17:06:07.464Z,64.00
2019-06-20T17:11:11.855Z,64.80
2019-06-20T17:16:16.344Z,64.60
2019-06-20T17:21:20.603Z,64.50
2019-06-20T17:26:23.775Z,65.50
2019-06-20T17:31:28.025Z,66.20
2019-06-20T17:36:31.186Z,65.90
2019-06-20T17:41:35.355Z,66.30
2019-06-20T17:46:40.379Z,68.90
2019-06-20T17:51:44.748Z,69.70
2019-06-20T17:56:48.125Z,69.00
2019-06-20T18:01:52.241Z,70.00
2019-06-20T18:06:58.025Z,71.70
2019-06-20T18:12:03.182Z,72.10
2019-06-20T18:17:07.669Z,72.50
2019-06-20T18:22:11.728Z,73.70
2019-06-20T18:27:15.873Z,74.60
2019-06-20T18:32:20.013Z,74.90
2019-06-20T18:37:31.282Z,77.50
2019-06-20T18:42:31.459Z,78.20
2019-06-20T18:47:35.871Z,77.40
2019-06-20T18:52:51.774Z,80.50
2019-06-20T18:57:46.697Z,80.10
2019-06-20T19:02:52.576Z,84.20
2019-06-20T19:07:56.769Z,85.00
2019-06-20T19:13:13.064Z,83.50
2019-06-20T19:18:18.611Z,84.10
2019-06-20T19:23:22.999Z,81.70
2019-06-20T19:28:26.353Z,81.70
2019-06-20T19:33:30.528Z,82.10
2019-06-20T19:38:35.082Z,82.40
2019-06-20T19:43:39.347Z,84.40
2019-06-20T19:48:43.801Z,84.70
2019-06-20T19:53:47.993Z,84.90
2019-06-20T19:58:52.507Z,85.40
2019-06-20T20:03:55.627Z,84.70
2019-06-20T20:08:59.832Z,85.80
2019-06-20T20:14:03.970Z,84.30
2019-06-20T20:19:08.394Z,85.20
2019-06-20T20:24:11.546Z,83.10
2019-06-20T20:29:15.726Z,83.40
2019-06-20T20:34:22.813Z,83.60
2019-06-20T20:39:27.038Z,85.20
2019-06-20T20:44:33.337Z,84.70
2019-06-20T20:49:37.533Z,85.30
2019-06-20T20:54:42.044Z,84.90
2019-06-20T20:59:45.064Z,85.50
2019-06-20T21:04:49.036Z,84.70
2019-06-20T21:09:53.340Z,85.10
2019-06-20T21:14:57.540Z,83.80
2019-06-20T21:20:01.908Z,83.90
2019-06-20T21:25:05.207Z,83.20
2019-06-20T21:30:09.928Z,84.20
2019-06-20T21:35:14.620Z,84.40
2019-06-20T21:40:20.661Z,85.30
2019-06-20T21:45:24.770Z,83.90
2019-06-20T21:50:28.977Z,84.10
2019-06-20T21:55:33.072Z,83.40
2019-06-20T22:00:43.434Z,83.50
2019-06-20T22:05:47.887Z,83.00
2019-06-20T22:10:51.968Z,83.10
2019-06-20T22:15:56.072Z,83.20
2019-06-20T22:27:04.476Z,83.20
2019-06-20T22:32:07.964Z,82.80
2019-06-20T22:37:12.348Z,83.00
2019-06-20T22:42:15.806Z,82.50
2019-06-20T22:47:19.901Z,82.40
2019-06-20T22:52:24.029Z,81.60
2019-06-20T22:57:28.257Z,81.70
2019-06-20T23:02:32.325Z,82.00
2019-06-20T23:13:39.693Z,82.20
2019-06-20T23:18:43.840Z,82.30
2019-06-20T23:23:48.058Z,83.30
2019-06-20T23:29:11.368Z,83.00
2019-06-20T23:34:15.575Z,82.80
2019-06-20T23:39:19.753Z,83.40
2019-06-20T23:44:23.896Z,83.80
2019-06-20T23:49:28.620Z,82.70
2019-06-20T23:54:33.127Z,83.20
2019-06-20T23:59:36.631Z,83.90
